Main page
METAR-TAF:

METAR-TAF

Airports :

Yeovilton, England

RNAS Yeovilton (HMS Heron)

latitude: 51-00N, longitude: 002-38W, elevation: 23 m

Current weather observation

The report was made 41 minutes ago, at 12:50 UTC
Wind 14 kt from the West/Northwest
Temperature 12°C
Humidity 82%
Pressure 1017 hPa
Visibility: 5000 m
rain

METAR: EGDY 221250Z AUTO 29014KT 5000 RA FEW024/// BKN028/// BKN050/// 12/09 Q1017

Time: 14:31 (13:31 UTC)


TAF: missing

Weather observations and forecasts of more than 4000 airports (METAR and TAF reports).

The available stations are represented by yellow and red dots on the map.

Hover mouse over dot to see the name of the station.

Then click to see weather observations and forecasts.

To change the map : click on the green buttons with a black cross to zoom in, on the green button with a dash to zoom out, or on the green arrows for adjacent maps.


METAR-TAF: